Whitney, Pennsylvania
Current Conditions -  °F | °C
As of 3:45 PM on Wednesday 26 Nov 2014 (Local Time) from KLBE Reporting Station
Light Snow Light Snow  
Wind Chill: 32°   Ceiling: 500
Heat Index: 32°   Visibility: 1.2mi
Dew Point: 32°   Wind: 0mph
Humidity: 100%   Direction: NA
Pressure: 30.01"   Gusts: NA
Location:  40.25°N, 79.41°W
Report Text: KLBE 262045Z 00000KT 1 1/4SM -SN BKN005 OVC019 00/00 A3001
Loading
Personal Weather Stations






























Interactive Weather Map New forecast layout! Learn more

10-Day Weather Forecast

Advertisements
Track Severe Weather on mobile